Time;durP1;ratioP1;P1;durP2;ratioP2;P2;SDS_P1;SDS_P2;PMS_P1;PMS_P2;Temp;Humidity;BMP_temperature;BMP_pressure;BME280_temperature;BME280_humidity;BME280_pressure;Samples;Min_cycle;Max_cycle;Signal;HPM_P1;HPM_P2
2023/04/14 00:00:50;;;;;;;17.42;7.22;;;;;;;11.03;75.45;100013.41;5007770;28;20026;-82
2023/04/14 00:03:16;;;;;;;20.70;8.63;;;;;;;11.05;75.46;100011.41;5009095;28;20470;-81
2023/04/14 00:05:42;;;;;;;29.05;11.15;;;;;;;11.04;75.38;100020.50;5023852;28;20026;-82
2023/04/14 00:08:07;;;;;;;19.58;10.27;;;;;;;10.95;75.92;100000.66;5008884;28;20111;-83
2023/04/14 00:10:33;;;;;;;55.10;11.60;;;;;;;10.97;75.93;100024.72;5008986;28;20026;-82
2023/04/14 00:13:00;;;;;;;52.92;9.52;;;;;;;10.78;76.49;99987.91;5008914;28;20424;-81
2023/04/14 00:15:25;;;;;;;35.15;9.13;;;;;;;10.95;76.20;100026.72;5010333;28;20620;-82
2023/04/14 00:17:51;;;;;;;22.17;10.63;;;;;;;11.00;76.28;100019.06;5009417;28;20030;-81
2023/04/14 00:20:17;;;;;;;14.70;7.35;;;;;;;10.95;75.70;100005.19;5009513;28;20053;-81
2023/04/14 00:22:42;;;;;;;12.13;7.10;;;;;;;11.01;76.05;100015.41;5013204;28;20046;-82
2023/04/14 00:25:08;;;;;;;27.75;7.55;;;;;;;11.01;75.38;100020.78;5013015;28;20033;-80
2023/04/14 00:27:34;;;;;;;26.52;7.25;;;;;;;11.05;76.37;100019.47;5013872;28;20057;-80
2023/04/14 00:29:59;;;;;;;26.85;7.18;;;;;;;10.99;76.10;100006.59;5015356;28;20022;-82
2023/04/14 00:32:25;;;;;;;14.32;6.18;;;;;;;11.08;75.77;100019.19;5026128;28;20187;-81
2023/04/14 00:34:50;;;;;;;32.47;7.57;;;;;;;11.03;76.03;100016.09;5029285;28;20037;-81
2023/04/14 00:37:16;;;;;;;14.20;6.00;;;;;;;10.99;76.12;100018.22;5025516;28;20022;-82
2023/04/14 00:39:41;;;;;;;14.10;7.65;;;;;;;11.03;76.11;100026.84;5024108;28;20029;-81
2023/04/14 00:42:07;;;;;;;32.47;7.20;;;;;;;11.01;75.90;100018.91;5020962;28;20088;-82
2023/04/14 00:44:32;;;;;;;18.92;7.03;;;;;;;11.06;75.81;100023.88;5017520;28;20108;-81
2023/04/14 00:47:00;;;;;;;17.95;7.22;;;;;;;11.06;75.87;100016.66;5013773;28;20033;-81
2023/04/14 00:49:26;;;;;;;29.13;6.55;;;;;;;11.01;75.71;100020.78;5012907;28;20030;-81
2023/04/14 00:51:51;;;;;;;43.40;15.57;;;;;;;11.03;75.88;100010.72;5012428;28;20022;-82
2023/04/14 00:54:19;;;;;;;32.80;9.95;;;;;;;11.00;75.98;100009.16;5012250;28;20496;-81
2023/04/14 00:56:46;;;;;;;24.05;9.02;;;;;;;11.01;76.04;100012.69;5012119;28;20022;-81
2023/04/14 00:59:12;;;;;;;31.33;8.25;;;;;;;11.02;76.53;100011.69;5012017;28;20088;-82
2023/04/14 01:01:39;;;;;;;17.17;7.55;;;;;;;11.00;75.92;100000.22;5012320;28;20030;-80
2023/04/14 01:04:05;;;;;;;26.13;7.75;;;;;;;10.96;76.06;100002.34;5011683;28;20495;-81
2023/04/14 01:06:31;;;;;;;21.75;8.23;;;;;;;10.96;76.39;100001.50;5011621;28;20034;-82
2023/04/14 01:08:58;;;;;;;27.92;7.05;;;;;;;10.98;76.28;100010.28;5011364;28;20026;-81
2023/04/14 01:11:30;;;;;;;22.20;7.15;;;;;;;11.00;76.40;100000.22;5010533;28;20061;-83
2023/04/14 01:13:56;;;;;;;21.73;7.07;;;;;;;10.95;76.20;99994.44;5011537;28;20065;-80
2023/04/14 01:16:31;;;;;;;20.73;7.07;;;;;;;10.86;75.57;99980.84;5011353;28;20097;-81
2023/04/14 01:19:24;;;;;;;50.67;7.60;;;;;;;10.80;76.22;99985.94;5011228;28;20061;-81
2023/04/14 01:21:55;;;;;;;36.13;6.35;;;;;;;10.82;76.21;99990.16;5011470;28;20041;-81
2023/04/14 01:24:42;;;;;;;22.70;7.07;;;;;;;10.78;76.85;99994.16;5011306;28;20400;-82
2023/04/14 01:27:22;;;;;;;19.48;7.53;;;;;;;10.76;76.68;100001.50;5011103;28;20056;-82
2023/04/14 01:30:00;;;;;;;24.63;7.05;;;;;;;10.75;76.76;99991.75;5011511;28;20030;-82
2023/04/14 01:32:30;;;;;;;30.25;7.38;;;;;;;10.75;77.19;99999.81;5011247;28;20077;-81
2023/04/14 01:35:10;;;;;;;29.45;7.70;;;;;;;10.76;76.95;99998.81;5011127;28;20426;-81
2023/04/14 01:37:43;;;;;;;29.00;7.68;;;;;;;10.67;77.16;99990.75;5012797;28;20097;-82
2023/04/14 01:40:14;;;;;;;27.95;7.47;;;;;;;10.68;77.76;99995.97;5031949;28;20485;-82
2023/04/14 01:42:47;;;;;;;21.20;7.68;;;;;;;10.70;77.32;100010.13;5016052;28;20030;-82
2023/04/14 01:45:19;;;;;;;23.48;7.47;;;;;;;10.66;76.88;100000.66;5011054;28;20022;-81
2023/04/14 01:47:46;;;;;;;;;;;;;;;10.75;76.88;100009.72;5011407;28;20398;-82
2023/04/14 01:50:13;;;;;;;15.50;6.80;;;;;;;10.67;76.51;100002.34;5011297;28;20373;-83
2023/04/14 01:52:43;;;;;;;18.35;6.15;;;;;;;10.68;77.00;100004.06;5010498;28;20030;-80
2023/04/14 01:55:10;;;;;;;29.25;8.18;;;;;;;10.70;76.91;99996.69;5010696;28;20091;-82
2023/04/14 01:57:38;;;;;;;53.67;9.65;;;;;;;10.68;77.08;99995.97;5010764;28;20034;-82
2023/04/14 02:00:06;;;;;;;22.15;8.60;;;;;;;10.65;76.76;99993.56;5010931;28;20065;-81
2023/04/14 02:02:36;;;;;;;36.90;8.52;;;;;;;10.61;76.97;99988.63;5009719;28;20073;-80
2023/04/14 02:05:03;;;;;;;39.50;9.13;;;;;;;10.64;77.16;99989.16;5010574;28;20405;-80
2023/04/14 02:07:29;;;;;;;33.20;8.05;;;;;;;10.55;77.03;99975.75;5010638;28;20030;-81
2023/04/14 02:09:56;;;;;;;38.08;8.90;;;;;;;10.58;77.03;99989.75;5009363;28;20026;-80
2023/04/14 02:12:23;;;;;;;42.05;8.57;;;;;;;10.52;77.61;99978.72;5009726;28;20037;-81
2023/04/14 02:14:50;;;;;;;29.08;7.65;;;;;;;10.51;77.52;99983.25;5010552;28;20030;-81
2023/04/14 02:17:20;;;;;;;16.95;6.80;;;;;;;10.47;77.73;99979.13;5010511;28;20516;-81
2023/04/14 02:19:46;;;;;;;20.42;7.32;;;;;;;10.48;78.42;99983.53;5010283;28;20034;-81
2023/04/14 02:22:12;;;;;;;27.83;7.43;;;;;;;10.45;78.29;99978.44;5010457;28;20037;-81
2023/04/14 02:24:38;;;;;;;17.92;7.90;;;;;;;10.47;78.46;99989.03;5010927;28;20021;-81
2023/04/14 02:27:15;;;;;;;29.58;6.70;;;;;;;10.47;78.20;99983.66;5010451;28;20133;-81
2023/04/14 02:29:43;;;;;;;29.73;6.88;;;;;;;10.41;78.27;99979.69;5010045;28;20030;-81
2023/04/14 02:32:16;;;;;;;33.60;7.78;;;;;;;10.46;78.63;99976.59;5010661;28;20136;-81
2023/04/14 02:35:10;;;;;;;24.13;8.38;;;;;;;10.38;78.58;99966.53;5010093;28;20030;-81
2023/04/14 02:37:40;;;;;;;39.83;9.25;;;;;;;10.44;78.43;99979.41;5012596;28;20119;-80
2023/04/14 02:40:19;;;;;;;27.60;8.48;;;;;;;10.40;78.29;99986.03;5014060;28;20042;-81
2023/04/14 02:42:49;;;;;;;46.65;9.18;;;;;;;10.29;78.12;99975.44;5011432;28;20113;-81
2023/04/14 02:45:21;;;;;;;19.45;8.82;;;;;;;10.30;78.37;99977.13;5009249;28;20052;-81
2023/04/14 02:47:52;;;;;;;19.10;9.18;;;;;;;10.28;78.58;99979.94;5009447;28;20061;-81
2023/04/14 02:50:19;;;;;;;39.75;10.57;;;;;;;10.30;79.25;99985.19;5009455;28;20105;-82
2023/04/14 02:52:50;;;;;;;44.22;9.07;;;;;;;10.27;78.71;99966.66;5009945;28;20497;-82
2023/04/14 02:55:17;;;;;;;34.42;10.20;;;;;;;10.29;78.13;99978.09;5009487;28;20117;-83
2023/04/14 02:57:44;;;;;;;43.75;11.70;;;;;;;10.18;78.09;99972.88;5009820;28;20038;-81
2023/04/14 03:00:12;;;;;;;28.98;10.55;;;;;;;10.18;78.60;99984.44;5008297;28;20017;-81
2023/04/14 03:02:37;;;;;;;27.20;8.90;;;;;;;10.19;78.79;99979.91;5009466;28;20036;-81
2023/04/14 03:05:04;;;;;;;25.83;9.88;;;;;;;10.11;78.85;99971.69;5009430;28;20026;-81
2023/04/14 03:07:30;;;;;;;33.55;9.35;;;;;;;10.12;78.60;99978.75;5009839;28;20064;-80
2023/04/14 03:09:57;;;;;;;32.05;10.88;;;;;;;10.10;78.63;99969.97;5009041;28;20714;-80
2023/04/14 03:12:24;;;;;;;31.85;10.75;;;;;;;10.12;78.67;99989.50;5009053;28;20034;-81
2023/04/14 03:14:50;;;;;;;29.38;10.20;;;;;;;10.11;79.05;99987.78;5008005;28;20026;-82
2023/04/14 03:17:19;;;;;;;37.53;11.70;;;;;;;10.05;79.39;99977.59;5009770;28;20038;-82
2023/04/14 03:19:47;;;;;;;60.22;11.80;;;;;;;10.10;79.08;99988.78;5009583;28;20446;-81
2023/04/14 03:22:16;;;;;;;58.80;13.13;;;;;;;10.08;79.03;99993.44;5008962;28;20069;-82
2023/04/14 03:24:43;;;;;;;38.72;11.45;;;;;;;10.03;78.91;99984.97;5009089;28;20026;-81
2023/04/14 03:27:25;;;;;;;29.58;10.57;;;;;;;10.04;79.25;99986.63;5009170;28;20109;-81
2023/04/14 03:29:52;;;;;;;27.65;11.20;;;;;;;10.05;79.05;99994.56;5024987;28;20030;-81
2023/04/14 03:32:21;;;;;;;34.50;10.73;;;;;;;10.01;78.76;99989.59;5009481;28;20060;-82
2023/04/14 03:34:50;;;;;;;37.65;11.82;;;;;;;10.05;78.82;99991.03;5009005;28;20113;-80
2023/04/14 03:37:18;;;;;;;43.03;12.20;;;;;;;10.01;78.62;99985.09;5011190;28;20061;-83
2023/04/14 03:39:46;;;;;;;24.60;9.63;;;;;;;10.05;79.03;99999.09;5013022;28;20508;-82
2023/04/14 03:42:12;;;;;;;46.50;12.88;;;;;;;9.99;78.61;99983.53;5010970;28;20084;-82
2023/04/14 03:44:39;;;;;;;34.28;11.98;;;;;;;10.03;78.65;99991.16;5008731;28;20033;-80
2023/04/14 03:47:07;;;;;;;120.65;18.77;;;;;;;10.08;79.10;99993.44;5008878;28;20512;-80
2023/04/14 03:49:37;;;;;;;70.72;13.38;;;;;;;10.00;78.69;99985.22;5009217;28;20076;-82
2023/04/14 03:52:06;;;;;;;50.95;12.30;;;;;;;10.05;79.32;99994.56;5009567;28;20026;-80
2023/04/14 03:54:33;;;;;;;63.13;13.65;;;;;;;10.04;79.54;99990.19;5009142;28;20400;-81
2023/04/14 03:57:03;;;;;;;53.50;12.63;;;;;;;10.15;79.61;100003.53;5013322;28;20489;-81
2023/04/14 03:59:30;;;;;;;53.47;9.95;;;;;;;10.19;79.27;99998.72;5013132;28;20334;-81
2023/04/14 04:01:56;;;;;;;70.85;14.85;;;;;;;10.17;78.85;99998.88;5012985;28;20034;-81
2023/04/14 04:04:25;;;;;;;61.35;19.27;;;;;;;10.22;78.15;100002.00;5013298;28;20041;-82
2023/04/14 04:06:52;;;;;;;44.15;10.68;;;;;;;10.38;78.50;100012.22;5013140;28;20045;-81
2023/04/14 04:09:20;;;;;;;54.80;11.50;;;;;;;10.42;77.83;100013.66;5013022;28;20030;-81
2023/04/14 04:11:47;;;;;;;43.83;11.68;;;;;;;10.46;77.75;100003.47;5013042;28;20050;-81
2023/04/14 04:14:16;;;;;;;49.83;10.55;;;;;;;10.50;77.12;100005.72;5012986;28;20022;-81
2023/04/14 04:16:43;;;;;;;38.28;9.52;;;;;;;10.56;77.44;100007.84;5013645;28;20501;-81
2023/04/14 04:19:12;;;;;;;52.95;10.55;;;;;;;10.58;76.62;100005.88;5012993;28;20152;-82
2023/04/14 04:21:41;;;;;;;49.60;10.65;;;;;;;10.60;76.78;100006.59;5012603;28;20489;-81
2023/04/14 04:24:08;;;;;;;44.97;12.20;;;;;;;10.64;76.48;100002.63;5012846;28;20022;-80
2023/04/14 04:26:34;;;;;;;63.95;11.25;;;;;;;10.64;77.29;100004.50;5013374;28;20030;-80
2023/04/14 04:29:02;;;;;;;58.83;13.23;;;;;;;10.73;77.10;100004.47;5013164;28;20505;-81
2023/04/14 04:31:28;;;;;;;66.10;12.23;;;;;;;10.86;77.24;100002.34;5013487;28;20037;-81
2023/04/14 04:33:56;;;;;;;55.60;13.65;;;;;;;10.96;77.17;100002.34;5013509;28;20057;-80
2023/04/14 04:36:22;;;;;;;46.10;12.02;;;;;;;11.00;77.15;99984.09;5015492;28;20061;-81
2023/04/14 04:38:49;;;;;;;70.05;12.70;;;;;;;11.26;76.98;100001.31;5017846;28;20033;-81
2023/04/14 04:41:26;;;;;;;87.45;12.55;;;;;;;11.47;76.13;100002.84;5019921;28;20030;-82
2023/04/14 04:43:51;;;;;;;63.15;11.15;;;;;;;11.63;76.01;100007.59;5021323;28;20485;-81
2023/04/14 04:46:19;;;;;;;89.88;16.40;;;;;;;11.84;75.56;100010.97;5019472;28;20118;-80
2023/04/14 04:48:50;;;;;;;44.05;10.65;;;;;;;11.97;74.11;100014.19;5013681;28;20477;-81
2023/04/14 04:51:16;;;;;;;34.85;8.68;;;;;;;12.19;74.20;100004.84;5015232;28;20037;-81
2023/04/14 04:53:42;;;;;;;47.92;12.82;;;;;;;12.42;73.52;99999.88;5014694;28;20358;-81
2023/04/14 04:56:07;;;;;;;119.57;16.42;;;;;;;12.64;72.98;100004.00;5013255;28;20032;-82
2023/04/14 04:58:33;;;;;;;49.70;13.05;;;;;;;12.81;72.28;99993.19;5012560;28;20105;-80
2023/04/14 05:00:58;;;;;;;26.23;8.13;;;;;;;12.93;70.78;99978.50;5012612;28;20034;-82
2023/04/14 05:03:24;;;;;;;254.23;99.03;;;;;;;13.20;70.44;99984.81;5012004;28;20025;-82
2023/04/14 05:05:49;;;;;;;74.68;21.13;;;;;;;13.38;69.71;99985.59;5011587;28;20026;-81
2023/04/14 05:08:15;;;;;;;41.10;10.68;;;;;;;13.59;68.96;99986.09;5011180;28;20112;-82
2023/04/14 05:10:40;;;;;;;124.75;15.68;;;;;;;13.72;67.36;99978.41;5011918;28;20080;-80
2023/04/14 05:13:05;;;;;;;100.43;15.15;;;;;;;13.92;67.28;99982.53;5012034;28;20551;-81
2023/04/14 05:15:31;;;;;;;134.32;17.92;;;;;;;14.12;66.85;99984.00;5011750;28;20022;-81
2023/04/14 05:17:57;;;;;;;141.70;18.10;;;;;;;14.27;65.69;99975.25;5011777;28;20406;-82
2023/04/14 05:20:23;;;;;;;73.38;10.95;;;;;;;14.47;64.92;99982.94;5011711;28;20030;-82
2023/04/14 05:22:49;;;;;;;59.03;8.85;;;;;;;14.64;63.67;99973.88;5011400;28;20064;-82
2023/04/14 05:25:14;;;;;;;36.85;7.55;;;;;;;14.81;60.99;99984.69;5011225;28;20026;-82
2023/04/14 05:27:40;;;;;;;59.60;9.13;;;;;;;14.98;59.18;99992.66;5012101;28;20026;-82
2023/04/14 05:30:07;;;;;;;142.88;15.77;;;;;;;15.10;59.52;99972.38;5019611;28;20421;-83
2023/04/14 05:32:32;;;;;;;32.45;8.73;;;;;;;15.43;59.13;99992.16;5027420;28;20053;-81
2023/04/14 05:34:58;;;;;;;21.42;6.20;;;;;;;15.59;57.75;99983.19;5011683;28;20174;-84
2023/04/14 05:37:24;;;;;;;85.00;10.85;;;;;;;15.80;56.62;99991.59;5016172;28;20030;-84
2023/04/14 05:39:49;;;;;;;41.72;7.15;;;;;;;15.69;55.16;99959.41;5016464;28;20026;-80
2023/04/14 05:42:15;;;;;;;26.38;7.55;;;;;;;16.00;54.46;99990.16;5012853;28;20033;-81
2023/04/14 05:44:40;;;;;;;34.15;11.80;;;;;;;16.00;55.08;99990.16;5011237;28;20421;-84
2023/04/14 05:47:06;;;;;;;55.88;10.07;;;;;;;15.87;57.16;99986.34;5011087;28;20125;-82
2023/04/14 05:49:31;;;;;;;67.15;12.48;;;;;;;15.82;58.57;99992.25;5011158;28;20251;-82
2023/04/14 05:51:57;;;;;;;53.63;11.00;;;;;;;15.74;59.57;99970.59;5010950;28;20502;-82
2023/04/14 05:54:22;;;;;;;43.08;10.15;;;;;;;15.72;59.00;99981.59;5011335;28;20088;-81
2023/04/14 05:56:48;;;;;;;40.97;9.52;;;;;;;15.56;59.73;99987.09;5011071;28;20056;-80
2023/04/14 05:59:15;;;;;;;62.42;12.40;;;;;;;15.50;61.24;99987.78;5010787;28;20095;-80
2023/04/14 06:01:40;;;;;;;63.40;15.15;;;;;;;15.64;61.73;99994.34;5010658;28;20034;-82
2023/04/14 06:04:05;;;;;;;29.42;9.90;;;;;;;15.64;61.20;99992.50;5010835;28;20722;-80
2023/04/14 06:06:31;;;;;;;57.25;10.95;;;;;;;15.42;61.66;99984.19;5011027;28;20526;-83
2023/04/14 06:08:56;;;;;;;46.15;10.95;;;;;;;15.27;62.07;99984.88;5010905;28;20541;-81
2023/04/14 06:11:22;;;;;;;38.05;10.85;;;;;;;15.20;62.79;99985.72;5010671;28;20037;-83
2023/04/14 06:13:47;;;;;;;35.90;9.82;;;;;;;15.18;63.12;99977.78;5010776;28;20030;-82
2023/04/14 06:16:13;;;;;;;63.10;11.05;;;;;;;15.10;63.94;99980.50;5011237;28;20417;-81
2023/04/14 06:18:38;;;;;;;32.55;9.45;;;;;;;14.99;62.94;99972.69;5009921;28;20147;-81
2023/04/14 06:21:04;;;;;;;47.30;10.52;;;;;;;15.10;63.22;99966.97;5010617;28;20028;-81
2023/04/14 06:23:30;;;;;;;50.50;10.10;;;;;;;15.28;62.93;99972.19;5010414;28;20030;-81
2023/04/14 06:25:56;;;;;;;42.78;10.15;;;;;;;15.22;62.24;99970.16;5010568;28;20088;-81
2023/04/14 06:28:25;;;;;;;28.80;9.85;;;;;;;15.17;61.98;99967.94;5010312;28;20049;-82
2023/04/14 06:30:51;;;;;;;46.28;10.32;;;;;;;15.16;61.84;99960.84;5011144;28;20036;-81
2023/04/14 06:33:16;;;;;;;26.80;9.13;;;;;;;15.30;61.23;99974.72;5009856;28;20502;-80
2023/04/14 06:35:45;;;;;;;40.83;9.98;;;;;;;15.40;61.30;99980.81;5011876;28;20026;-80
2023/04/14 06:38:10;;;;;;;63.90;12.48;;;;;;;15.49;60.91;99979.81;5013676;28;20026;-84
2023/04/14 06:40:36;;;;;;;25.80;8.25;;;;;;;15.38;61.22;99980.13;5013805;28;20496;-82
2023/04/14 06:43:01;;;;;;;55.38;11.20;;;;;;;15.48;61.33;99978.09;5025220;28;20033;-81
2023/04/14 06:45:27;;;;;;;53.50;8.20;;;;;;;15.44;61.20;99982.16;5009481;28;20029;-82
2023/04/14 06:47:52;;;;;;;27.70;7.22;;;;;;;15.47;61.83;99981.81;5009834;28;20100;-82
2023/04/14 06:50:18;;;;;;;43.17;9.55;;;;;;;15.45;60.63;99970.28;5009930;28;20030;-83
2023/04/14 06:52:43;;;;;;;61.20;9.77;;;;;;;15.58;60.00;99981.47;5009833;28;20104;-81
2023/04/14 06:55:09;;;;;;;44.17;7.18;;;;;;;15.61;59.78;99979.28;5009537;28;20049;-80
2023/04/14 06:57:34;;;;;;;54.95;10.80;;;;;;;15.67;59.46;99989.44;5009935;28;20061;-81
2023/04/14 07:00:00;;;;;;;36.20;7.22;;;;;;;15.64;59.57;99978.06;5009558;28;20025;-81
2023/04/14 07:02:27;;;;;;;19.30;6.80;;;;;;;15.65;59.88;99983.34;5009077;28;20132;-82
2023/04/14 07:04:52;;;;;;;53.50;8.80;;;;;;;15.61;59.66;99983.84;5009029;28;20026;-82
2023/04/14 07:07:18;;;;;;;46.75;9.00;;;;;;;15.62;59.32;99970.13;5009065;28;20033;-80
2023/04/14 07:09:44;;;;;;;81.20;11.95;;;;;;;15.71;59.00;99979.09;5009712;28;20034;-82
2023/04/14 07:12:14;;;;;;;57.40;9.27;;;;;;;15.68;59.25;99971.31;5009607;28;20492;-81
2023/04/14 07:14:40;;;;;;;41.28;10.18;;;;;;;15.69;59.15;99971.13;5009282;28;20022;-79
2023/04/14 07:17:05;;;;;;;29.33;6.93;;;;;;;15.81;58.76;99974.28;4990406;28;20061;-81
2023/04/14 07:19:31;;;;;;;48.05;8.73;;;;;;;15.76;58.03;99972.13;5009430;28;20083;-81
2023/04/14 07:21:57;;;;;;;40.50;7.65;;;;;;;15.84;56.89;99973.94;5009764;28;20030;-83
2023/04/14 07:24:22;;;;;;;34.85;7.07;;;;;;;15.82;56.86;99970.56;5009668;28;20076;-82
2023/04/14 07:26:48;;;;;;;39.03;8.23;;;;;;;15.88;56.47;99964.44;5009232;28;20032;-81
2023/04/14 07:29:13;;;;;;;23.73;7.50;;;;;;;15.89;56.67;99971.56;5009806;28;20049;-81
2023/04/14 07:31:39;;;;;;;64.80;8.60;;;;;;;16.06;56.77;99962.34;5009774;28;20038;-81
2023/04/14 07:34:04;;;;;;;32.30;8.10;;;;;;;16.17;56.37;99964.69;5008942;28;20062;-82
2023/04/14 07:36:31;;;;;;;46.42;11.05;;;;;;;16.19;56.18;99961.78;5014801;28;20032;-81
2023/04/14 07:38:56;;;;;;;21.63;5.70;;;;;;;16.14;56.17;99962.31;5014766;28;20026;-81
2023/04/14 07:41:23;;;;;;;23.90;7.07;;;;;;;16.19;56.56;99962.63;5010198;28;20531;-81
2023/04/14 07:43:49;;;;;;;31.48;8.15;;;;;;;16.36;56.28;99963.38;5007743;28;20062;-82
2023/04/14 07:46:14;;;;;;;19.98;5.80;;;;;;;16.49;55.46;99965.50;5009172;28;20481;-82
2023/04/14 07:48:40;;;;;;;27.10;6.45;;;;;;;16.52;55.74;99954.28;5009049;28;20516;-80
2023/04/14 07:51:06;;;;;;;33.20;6.75;;;;;;;16.70;55.57;99963.03;5008460;28;20036;-81
2023/04/14 07:53:33;;;;;;;16.40;7.03;;;;;;;16.82;55.30;99954.28;5009404;28;20034;-81
2023/04/14 07:55:58;;;;;;;20.98;7.40;;;;;;;16.95;55.33;99948.25;5009072;28;20037;-83
2023/04/14 07:58:24;;;;;;;22.10;6.95;;;;;;;16.88;55.50;99948.13;5008894;28;20030;-81
2023/04/14 08:00:50;;;;;;;15.32;5.63;;;;;;;17.00;55.00;99940.38;5008845;28;20022;-81
2023/04/14 08:03:16;;;;;;;19.95;5.82;;;;;;;17.11;54.37;99944.56;5007729;28;20036;-81
2023/04/14 08:05:41;;;;;;;55.13;8.38;;;;;;;17.14;54.65;99936.03;5008757;28;20030;-81
2023/04/14 08:08:08;;;;;;;29.60;6.13;;;;;;;17.23;54.51;99935.78;5008616;28;20034;-81
2023/04/14 08:10:34;;;;;;;57.63;8.40;;;;;;;17.34;53.82;99929.88;5009297;28;20108;-80
2023/04/14 08:13:00;;;;;;;22.17;6.65;;;;;;;17.29;53.20;99940.47;5008963;28;20026;-82
2023/04/14 08:15:25;;;;;;;68.82;9.05;;;;;;;17.58;52.87;99934.28;5009832;28;20041;-83
2023/04/14 08:17:51;;;;;;;45.53;6.88;;;;;;;17.63;52.32;99933.69;5009452;28;20030;-82
2023/04/14 08:20:16;;;;;;;35.63;6.60;;;;;;;17.67;52.44;99924.16;5009241;28;20026;-82
2023/04/14 08:22:42;;;;;;;23.92;6.05;;;;;;;17.73;52.38;99926.13;5009072;28;20029;-80
2023/04/14 08:25:10;;;;;;;33.42;6.95;;;;;;;17.63;52.34;99928.25;5008710;28;20033;-82
2023/04/14 08:27:36;;;;;;;37.53;7.13;;;;;;;17.97;52.33;99925.81;5008827;28;20413;-80
2023/04/14 08:30:02;;;;;;;33.47;7.22;;;;;;;18.04;52.18;99923.19;5009244;28;20030;-80
2023/04/14 08:32:28;;;;;;;33.10;7.10;;;;;;;17.92;52.69;99936.41;5009094;28;20046;-81
2023/04/14 08:34:53;;;;;;;39.15;7.55;;;;;;;18.04;53.02;99918.56;5010198;28;20535;-80
2023/04/14 08:37:21;;;;;;;58.97;11.27;;;;;;;18.15;52.61;99920.81;5013551;28;20033;-81
2023/04/14 08:39:47;;;;;;;48.30;8.32;;;;;;;18.40;52.31;99927.63;5013779;28;20033;-81
2023/04/14 08:42:14;;;;;;;24.10;7.72;;;;;;;18.24;51.79;99930.56;5010340;28;20026;-82
2023/04/14 08:44:40;;;;;;;36.90;6.88;;;;;;;18.27;52.09;99919.28;5012275;28;20541;-82
2023/04/14 08:47:06;;;;;;;27.15;6.88;;;;;;;18.18;52.13;99908.69;5011937;28;20117;-81
2023/04/14 08:49:51;;;;;;;101.65;12.95;;;;;;;18.15;52.46;99912.66;5014236;28;20401;-80
2023/04/14 08:52:20;;;;;;;19.17;7.13;;;;;;;18.17;52.03;99913.28;5016429;28;20080;-80
2023/04/14 08:54:49;;;;;;;18.13;6.10;;;;;;;18.10;52.65;99909.66;5018229;28;20057;-84
2023/04/14 08:57:19;;;;;;;34.42;8.48;;;;;;;18.09;52.86;99915.28;5013226;28;20034;-80
2023/04/14 08:59:44;;;;;;;31.40;8.00;;;;;;;18.08;52.83;99897.25;5012584;28;20083;-80
2023/04/14 09:02:11;;;;;;;15.93;5.97;;;;;;;18.21;52.39;99898.28;5013262;28;20022;-80
2023/04/14 09:04:38;;;;;;;17.75;6.30;;;;;;;18.17;52.00;99913.28;5012618;28;20527;-82
2023/04/14 09:07:04;;;;;;;25.27;7.68;;;;;;;18.20;52.06;99912.91;5011777;28;20034;-81
2023/04/14 09:09:30;;;;;;;18.40;7.22;;;;;;;18.25;52.13;99915.06;5011646;28;20026;-81
2023/04/14 09:12:01;;;;;;;18.55;6.40;;;;;;;18.25;52.72;99912.34;5011842;28;20045;-82
2023/04/14 09:14:28;;;;;;;20.13;6.53;;;;;;;18.31;52.64;99893.38;5011464;28;20196;-80
2023/04/14 09:16:55;;;;;;;27.25;8.00;;;;;;;18.36;52.93;99890.06;5011911;28;20064;-81
2023/04/14 09:19:23;;;;;;;44.38;8.57;;;;;;;18.39;52.78;99895.97;5011325;28;20085;-82
2023/04/14 09:21:49;;;;;;;31.73;7.80;;;;;;;18.55;52.70;99891.34;5011432;28;20022;-81
2023/04/14 09:24:22;;;;;;;31.92;6.38;;;;;;;18.61;52.65;99887.84;5010078;28;20041;-81
2023/04/14 09:26:48;;;;;;;47.25;7.63;;;;;;;18.74;52.73;99890.69;5010800;28;20105;-84
2023/04/14 09:29:14;;;;;;;13.93;6.95;;;;;;;18.68;52.04;99880.59;5011749;28;20036;-81
2023/04/14 09:31:39;;;;;;;33.05;7.10;;;;;;;18.67;52.92;99870.72;5011381;28;20025;-81
2023/04/14 09:34:15;;;;;;;27.52;6.95;;;;;;;18.90;52.71;99893.13;5012353;28;20050;-82
2023/04/14 09:36:41;;;;;;;15.45;6.43;;;;;;;18.76;52.47;99886.75;5017159;28;20032;-80
2023/04/14 09:39:16;;;;;;;12.98;6.35;;;;;;;18.61;53.43;99890.56;5015594;28;20100;-80
2023/04/14 09:41:46;;;;;;;49.53;8.73;;;;;;;18.80;53.53;99893.50;5011593;28;20025;-82
2023/04/14 09:44:11;;;;;;;76.70;11.38;;;;;;;18.89;53.74;99886.03;5010992;28;20045;-83
2023/04/14 09:47:15;;;;;;;39.20;8.07;;;;;;;19.16;53.56;99887.91;5010845;28;20030;-82
2023/04/14 09:49:54;;;;;;;25.13;8.50;;;;;;;19.33;52.49;99889.28;5022453;28;20049;-81
2023/04/14 09:52:20;;;;;;;37.38;8.35;;;;;;;19.34;52.57;99891.00;5010519;28;20065;-81
2023/04/14 09:54:46;;;;;;;24.13;7.03;;;;;;;19.15;53.00;99891.69;5010725;28;20187;-81
2023/04/14 09:57:23;;;;;;;29.77;8.13;;;;;;;19.16;53.46;99881.63;5010147;28;20029;-81
2023/04/14 09:59:48;;;;;;;17.67;7.57;;;;;;;19.26;53.09;99891.16;5010228;28;20026;-81
2023/04/14 10:02:14;;;;;;;12.73;5.97;;;;;;;19.21;53.60;99896.34;5009831;28;20495;-81
2023/04/14 10:04:40;;;;;;;40.58;8.95;;;;;;;19.12;54.11;99891.22;5009761;28;20049;-83
2023/04/14 10:07:11;;;;;;;26.15;9.05;;;;;;;19.23;54.22;99888.81;5025137;28;20026;-82
2023/04/14 10:09:37;;;;;;;22.92;7.18;;;;;;;19.07;54.05;99894.56;5010077;28;20030;-81
2023/04/14 10:12:13;;;;;;;21.05;8.80;;;;;;;18.95;54.78;99880.63;5010043;28;20477;-81
2023/04/14 10:14:41;;;;;;;14.07;6.43;;;;;;;19.10;54.92;99876.97;5008829;28;20030;-82
2023/04/14 10:17:07;;;;;;;46.95;9.30;;;;;;;19.29;54.86;99889.91;5010147;28;20477;-82
2023/04/14 10:19:33;;;;;;;61.08;11.32;;;;;;;19.07;55.19;99894.56;5009948;28;20448;-82
2023/04/14 10:21:59;;;;;;;20.20;7.28;;;;;;;19.05;55.86;99888.44;5010245;28;20032;-81
2023/04/14 10:24:25;;;;;;;40.42;8.90;;;;;;;19.30;55.09;99906.06;5010076;28;20030;-82
2023/04/14 10:26:52;;;;;;;21.77;8.20;;;;;;;19.23;55.19;99905.19;5010378;28;20084;-82
2023/04/14 10:29:18;;;;;;;31.13;8.88;;;;;;;19.09;56.10;99903.38;5010492;28;20488;-82
2023/04/14 10:32:02;;;;;;;41.22;10.00;;;;;;;19.08;56.65;99901.69;5010287;28;20034;-82
2023/04/14 10:34:31;;;;;;;67.68;13.63;;;;;;;19.30;56.65;99914.25;5013291;28;20069;-82
2023/04/14 10:37:11;;;;;;;36.15;10.30;;;;;;;19.31;56.62;99899.56;5016778;28;20057;-83
2023/04/14 10:39:38;;;;;;;47.88;9.93;;;;;;;19.67;55.81;99898.56;5013765;28;20248;-81
2023/04/14 10:42:03;;;;;;;44.65;11.25;;;;;;;19.76;55.57;99905.53;5009955;28;20036;-83
2023/04/14 10:44:33;;;;;;;42.10;10.40;;;;;;;19.45;56.45;99904.09;5009806;28;20026;-80
2023/04/14 10:47:01;;;;;;;30.02;9.57;;;;;;;19.63;56.23;99895.38;5009725;28;20113;-81
2023/04/14 10:49:32;;;;;;;18.30;8.43;;;;;;;19.59;56.90;99909.66;5012247;28;20196;-83
2023/04/14 10:52:26;;;;;;;20.37;9.03;;;;;;;19.53;57.00;99900.38;5010195;28;20018;-82
2023/04/14 10:54:59;;;;;;;46.08;11.88;;;;;;;19.72;56.51;99904.28;5009647;28;20022;-81
2023/04/14 10:57:27;;;;;;;29.42;10.20;;;;;;;19.95;56.09;99904.81;5015516;28;20045;-82
2023/04/14 10:59:55;;;;;;;24.55;8.30;;;;;;;19.81;55.81;99897.59;5009754;28;20156;-82
2023/04/14 11:02:31;;;;;;;28.27;9.60;;;;;;;19.93;55.98;99893.25;5009451;28;20062;-83
2023/04/14 11:04:57;;;;;;;24.63;8.85;;;;;;;19.87;55.82;99886.72;5008590;28;20030;-82
2023/04/14 11:07:23;;;;;;;27.48;8.93;;;;;;;19.68;56.20;99889.34;5009141;28;20531;-81
2023/04/14 11:09:49;;;;;;;24.13;7.35;;;;;;;19.52;55.97;99877.72;5009149;28;20028;-86
2023/04/14 11:12:26;;;;;;;34.60;8.65;;;;;;;19.83;56.05;99900.97;5012713;28;20119;-88
2023/04/14 11:15:01;;;;;;;30.58;9.05;;;;;;;19.59;55.92;99899.59;5012999;28;20029;-86
2023/04/14 11:17:29;;;;;;;21.60;8.82;;;;;;;19.86;56.29;99884.19;5012392;28;20168;-85
2023/04/14 11:19:56;;;;;;;45.58;10.48;;;;;;;19.93;55.54;99887.81;5025982;28;20018;-87
2023/04/14 11:22:43;;;;;;;53.58;10.10;;;;;;;19.80;55.68;99895.91;5011502;28;20053;-86
2023/04/14 11:25:17;;;;;;;32.13;8.93;;;;;;;19.75;55.75;99898.41;5014804;28;20091;-91